Latest Weather Observations for Cooma Airport

IDN60801

Issued at 9:02 am EDT Friday 31 March 2017 (issued every 30 minutes, with the page automatically refreshed every 10 minutes)

About weather observations | Map of weather stations | Latest weather observations for NSW | Other Formats
Station Details ID: 070217 Name: COOMA AIRPORT AWS Lat: -36.29 Lon: 148.97 Height: 930.0 m
Data from the previous 72 hours. | See also: Recent months at Cooma Airport
Date/Time
EDT
Temp
°C
App
Temp
°C
Dew
Point
°C
Rel
Hum
%
Delta-T
°C
Wind Press
QNH
hPa
Press
MSL
hPa
Rain since
9am
mm
Dir  Spd
km/h
Gust
km/h
Spd
kts
Gust
kts
31/08:30am 5.8 1.3 4.3 90 0.7 SW 17 22 9 12 1020.0 1017.2 -
31/08:00am 4.4 0.3 4.3 99 0.0 SW 15 20 8 11 1019.8 1017.0 -
31/07:30am 2.9 -1.9 2.8 99 0.0 SW 17 19 9 10 1019.3 1016.4 -
31/07:00am 2.8 -1.6 2.7 99 0.0 SW 15 19 8 10 1019.3 1016.4 -
31/06:30am 3.7 -0.9 3.6 99 0.0 SW 17 20 9 11 1019.2 1016.3 -
31/06:04am 4.3 0.2 4.2 99 0.0 SW 15 17 8 9 1019.1 1016.2 -
31/06:00am 4.4 0.3 4.3 99 0.0 SW 15 19 8 10 1019.1 1016.2 -
31/05:30am 5.0 1.4 4.9 99 0.0 WSW 13 15 7 8 1019.1 1016.2 -
31/05:04am 4.9 0.1 4.8 99 0.0 SW 19 24 10 13 1018.8 1016.0 -
31/05:00am 4.7 -0.3 4.6 99 0.0 SW 20 24 11 13 1018.7 1015.9 -
31/04:47am 5.1 0.4 5.0 99 0.0 SW 19 24 10 13 1018.5 1015.6 -
31/04:30am 5.3 1.7 5.2 99 0.0 SW 13 20 7 11 1018.6 1015.8 -
31/04:00am 5.2 2.0 5.1 99 0.0 SW 11 15 6 8 1018.5 1015.6 -
31/03:53am 5.2 2.0 5.1 99 0.0 SW 11 15 6 8 1018.5 1015.6 -
31/03:30am 5.1 - 5.0 99 0.0 - - - - - 1018.6 1015.8 -
31/12:30am 6.7 1.0 4.9 88 0.8 SSW 24 32 13 17 1019.3 1016.4 -
31/12:00am 7.2 1.5 4.9 85 1.1 SSW 24 32 13 17 1019.3 1016.4 -
 
Date/Time
EDT
Temp
°C
App
Temp
°C
Dew
Point
°C
Rel
Hum
%
Delta-T
°C
Wind Press
QNH
hPa
Press
MSL
hPa
Rain since
9am
mm
Dir  Spd
km/h
Gust
km/h
Spd
kts
Gust
kts
30/11:30pm 7.3 0.9 5.0 85 1.1 S 28 35 15 19 1019.4 1016.5 -
30/11:00pm 7.5 1.5 5.1 85 1.1 S 26 33 14 18 1019.3 1016.4 -
30/10:30pm 7.7 0.9 5.0 83 1.3 S 30 39 16 21 1019.3 1016.4 -
30/10:00pm 7.9 3.0 5.0 82 1.4 S 20 28 11 15 1019.2 1016.3 -
30/09:30pm 7.7 3.0 5.2 84 1.2 S 19 24 10 13 1018.8 1016.0 -
30/09:00pm 7.6 2.6 4.6 81 1.4 S 20 26 11 14 1018.4 1015.5 -
30/08:30pm 8.3 3.0 4.9 79 1.6 S 22 30 12 16 1017.9 1015.0 -
30/08:00pm 8.9 4.0 5.1 77 1.8 SSW 20 24 11 13 1017.5 1014.6 -
30/07:30pm 8.8 4.1 5.2 78 1.7 SSW 19 24 10 13 1017.1 1014.2 -
30/07:00pm 9.0 4.0 4.8 75 2.0 SSW 20 28 11 15 1016.4 1013.5 -
30/06:30pm 9.0 3.3 4.8 75 2.0 SSW 24 30 13 16 1015.9 1013.0 -
30/06:00pm 9.1 3.0 4.9 75 2.0 SSW 26 32 14 17 1015.3 1012.4 -
30/05:30pm 8.8 3.2 5.2 78 1.7 S 24 30 13 16 1014.9 1012.0 -
30/05:00pm 8.8 2.3 4.6 75 2.0 SSW 28 33 15 18 1014.7 1011.7 -
30/04:30pm 9.0 2.4 4.0 71 2.3 SSW 28 37 15 20 1014.7 1011.7 -
30/04:00pm 8.8 2.4 5.0 77 1.8 SSW 28 37 15 20 1014.2 1011.3 -
30/03:30pm 8.9 1.7 4.9 76 1.9 SSW 32 41 17 22 1014.1 1011.2 -
30/03:00pm 9.3 2.6 5.5 77 1.8 SSW 30 37 16 20 1014.1 1011.2 -
30/02:30pm 9.1 2.3 5.3 77 1.8 SSW 30 39 16 21 1014.1 1011.2 -
30/02:04pm 9.4 2.4 5.8 78 1.7 SSW 32 37 17 20 1014.2 1011.3 -
30/02:00pm 9.5 2.5 6.0 79 1.7 SSW 32 39 17 21 1014.4 1011.4 -
30/01:32pm 9.3 2.8 6.4 82 1.4 SSW 30 35 16 19 1014.4 1011.4 -
30/01:30pm 9.3 2.8 6.6 83 1.3 SSW 30 35 16 19 1014.4 1011.4 -
30/12:00pm 10.0 3.2 6.7 80 1.6 SSW 32 37 17 20 1014.5 1011.5 -
30/11:51am 10.7 4.2 6.6 76 2.0 SSW 30 39 16 21 1014.6 1011.6 -
30/11:35am 9.5 3.4 6.6 82 1.4 SSW 28 35 15 19 1014.6 1011.6 -
30/11:30am 9.4 3.4 7.0 85 1.2 SSW 28 33 15 18 1014.6 1011.6 -
30/11:00am 8.8 3.3 7.7 93 0.6 SSW 26 33 14 18 1014.6 1011.6 0.0
30/10:30am 9.1 3.7 8.0 93 0.6 SSW 26 33 14 18 1014.2 1011.3 0.0
30/10:00am 9.4 3.6 7.8 90 0.8 SSW 28 32 15 17 1014.5 1011.5 0.0
30/09:30am 9.5 3.6 7.3 86 1.1 S 28 35 15 19 1013.9 1011.0 0.0
30/09:00am 10.3 6.2 8.6 89 0.9 S 20 26 11 14 1013.4 1010.4 0.0
30/08:30am 10.8 7.3 10.3 97 0.3 SSW 19 24 10 13 1012.9 1010.0 0.0
30/08:00am 9.9 7.0 9.6 98 0.2 SW 15 19 8 10 1012.6 1009.6 0.0
30/07:30am 9.5 6.1 9.2 98 0.2 SW 17 22 9 12 1012.2 1009.2 0.0
30/07:13am 9.2 5.3 8.6 96 0.3 SW 19 22 10 12 1011.8 1008.8 0.0
30/07:00am 8.6 4.4 7.5 93 0.5 SW 19 20 10 11 1011.7 1008.7 0.0
30/06:30am 9.0 4.7 7.0 87 1.0 SW 19 20 10 11 1011.1 1008.1 0.0
30/06:00am 8.8 4.4 5.0 77 1.8 SW 17 20 9 11 1010.9 1007.8 0.0
30/05:30am 12.3 8.4 3.5 55 4.1 WNW 13 15 7 8 1009.8 1006.7 0.0
30/05:00am 12.4 8.5 3.4 54 4.2 WNW 13 15 7 8 1009.5 1006.5 0.0
30/04:30am 11.5 8.0 3.5 58 3.7 NW 11 13 6 7 1009.3 1006.3 0.0
30/04:00am 11.5 8.5 4.0 60 3.6 NW 9 13 5 7 1009.7 1006.6 0.0
30/03:30am 10.0 8.8 4.6 69 2.6 CALM 0 6 0 3 1010.1 1007.1 0.0
30/03:00am 12.6 9.2 4.1 56 4.1 NNW 11 13 6 7 1010.2 1007.2 0.0
30/02:30am 12.3 8.6 4.5 59 3.7 NNW 13 13 7 7 1010.5 1007.5 0.0
30/02:00am 12.2 8.5 4.7 60 3.6 NNW 13 17 7 9 1010.7 1007.7 0.0
30/01:30am 8.5 6.1 5.3 80 1.5 NNW 7 11 4 6 1010.7 1007.7 0.0
30/01:00am 7.6 4.7 4.7 82 1.4 NNE 9 9 5 5 1010.5 1007.5 0.0
30/12:30am 8.8 6.4 4.4 74 2.1 N 6 9 3 5 1010.4 1007.4 0.0
30/12:00am 10.2 7.9 4.6 68 2.7 N 6 7 3 4 1010.4 1007.4 0.0
 
Date/Time
EDT
Temp
°C
App
Temp
°C
Dew
Point
°C
Rel
Hum
%
Delta-T
°C
Wind Press
QNH
hPa
Press
MSL
hPa
Rain since
9am
mm
Dir  Spd
km/h
Gust
km/h
Spd
kts
Gust
kts
29/11:30pm 14.5 11.4 3.6 48 5.2 NNW 9 17 5 9 1010.7 1007.7 0.0
29/11:00pm 15.1 12.5 4.2 48 5.3 NW 7 11 4 6 1010.9 1007.8 0.0
29/10:30pm 13.7 11.0 3.8 51 4.7 NNW 7 11 4 6 1011.2 1008.2 0.0
29/10:00pm 15.2 12.8 4.3 48 5.3 N 6 17 3 9 1011.4 1008.4 0.0
29/09:30pm 15.1 12.0 3.6 46 5.5 NNW 9 13 5 7 1011.3 1008.3 0.0
29/09:00pm 17.3 13.1 3.6 40 6.7 NNW 15 20 8 11 1011.0 1008.0 0.0
29/08:30pm 16.5 13.3 3.2 41 6.4 NW 9 11 5 6 1010.9 1007.8 0.0
29/08:00pm 17.4 14.5 2.6 37 7.1 NW 7 13 4 7 1010.5 1007.5 0.0
29/07:30pm 18.0 14.7 2.3 35 7.5 NW 9 17 5 9 1010.2 1007.2 0.0
29/07:00pm 19.5 15.0 -0.5 26 9.2 WNW 13 17 7 9 1010.1 1007.1 0.0
29/06:30pm 21.8 17.8 0.4 24 10.2 NW 11 17 6 9 1010.0 1007.0 0.0
29/06:00pm 23.1 18.1 -1.1 20 11.3 NW 15 20 8 11 1009.8 1006.7 0.0
29/05:30pm 23.8 18.6 0.2 21 11.3 NW 17 24 9 13 1009.8 1006.7 0.0
29/05:00pm 24.4 19.5 1.9 23 11.2 NW 17 26 9 14 1009.8 1006.7 0.0
29/04:30pm 24.2 18.7 0.5 21 11.5 WNW 19 28 10 15 1009.8 1006.7 0.0
29/04:00pm 25.0 19.9 3.0 24 11.2 NW 19 26 10 14 1010.0 1007.0 0.0
29/03:30pm 24.5 17.4 1.4 22 11.4 NW 28 35 15 19 1010.4 1007.4 0.0
29/03:00pm 24.4 18.8 1.3 22 11.4 NW 20 28 11 15 1010.4 1007.4 0.0
29/02:30pm 24.2 17.6 -0.2 20 11.7 NW 24 37 13 20 1010.9 1007.8 0.0
29/02:00pm 24.4 18.6 -1.4 18 12.1 NW 19 28 10 15 1011.1 1008.1 0.0
29/01:30pm 25.5 20.3 2.2 22 11.7 NW 19 30 10 16 1011.3 1008.3 0.0
29/01:00pm 25.0 20.0 -0.9 18 12.3 NNW 15 24 8 13 1011.6 1008.6 0.0
29/12:30pm 22.6 19.3 9.7 44 7.3 NE 17 22 9 12 1012.2 1009.2 0.0
29/12:00pm 20.6 17.2 10.7 53 5.7 NE 19 24 10 13 1012.5 1009.5 0.0
29/11:30am 18.5 14.2 9.3 55 5.1 NE 22 26 12 14 1012.7 1009.7 0.0
29/11:00am 16.4 13.2 11.8 74 2.6 NE 20 24 11 13 1013.2 1010.2 0.0
29/10:30am 15.0 11.7 10.8 76 2.3 NE 19 20 10 11 1013.4 1010.4 0.0
29/10:00am 12.5 8.8 10.0 85 1.3 NE 20 24 11 13 1013.5 1010.5 0.0
29/09:30am 11.4 7.4 9.0 85 1.3 NE 20 24 11 13 1013.5 1010.5 0.0
29/09:00am 10.0 6.0 8.1 88 1.0 NE 19 22 10 12 1013.3 1010.3 0.2
29/08:30am 8.7 5.5 8.6 99 0.1 NE 15 19 8 10 1013.3 1010.3 0.2
29/08:00am 7.1 3.6 7.1 100 0.0 NE 15 17 8 9 1013.3 1010.3 0.2
29/07:30am 6.0 2.2 6.0 100 0.0 NE 15 17 8 9 1013.2 1010.2 0.2
29/07:00am 5.7 1.5 5.7 100 0.0 NE 17 19 9 10 1013.2 1010.2 0.2
29/06:30am 4.7 1.0 4.6 99 0.0 NE 13 17 7 9 1013.0 1010.1 0.2
29/06:00am 4.7 1.8 4.6 99 0.0 NE 9 13 5 7 1013.2 1010.2 0.2
29/05:30am 4.8 1.5 4.7 99 0.0 NNE 11 13 6 7 1013.2 1010.2 0.2
29/05:28am 4.8 1.1 4.7 99 0.0 NNE 13 15 7 8 1013.2 1010.2 0.2
29/05:10am 5.3 2.9 5.2 99 0.0 NNE 7 11 4 6 1013.3 1010.3 0.2
29/05:05am 5.8 3.5 5.8 100 0.0 NNE 7 9 4 5 1013.3 1010.3 0.2
29/05:02am 6.4 4.2 6.4 100 0.0 N 7 9 4 5 1013.3 1010.3 0.2
29/05:00am 6.5 4.4 6.5 100 0.0 N 7 9 4 5 1013.4 1010.4 0.2
29/04:30am 6.9 4.5 6.9 100 0.0 N 9 11 5 6 1013.4 1010.4 0.2
29/04:00am 7.3 5.3 7.3 100 0.0 N 7 9 4 5 1013.6 1010.6 0.0
29/03:30am 8.1 6.3 8.1 100 0.0 NNE 7 7 4 4 1013.9 1011.0 0.0
29/03:00am 8.6 7.0 8.6 100 0.0 NNE 7 9 4 5 1014.1 1011.2 0.0
29/02:30am 10.5 8.6 10.5 100 0.0 NE 11 13 6 7 1014.5 1011.5 0.0
29/02:00am 10.7 8.5 10.7 100 0.0 NE 13 15 7 8 1014.7 1011.7 0.0
29/01:30am 10.8 8.6 10.8 100 0.0 NE 13 17 7 9 1015.0 1012.1 0.0
29/01:00am 10.9 8.7 10.9 100 0.0 NNE 13 15 7 8 1015.0 1012.1 0.0
29/12:30am 11.1 9.4 11.1 100 0.0 N 11 15 6 8 1015.5 1012.5 0.0
29/12:00am 10.6 8.3 10.6 100 0.0 N 13 13 7 7 1015.6 1012.6 0.0
 
Date/Time
EDT
Temp
°C
App
Temp
°C
Dew
Point
°C
Rel
Hum
%
Delta-T
°C
Wind Press
QNH
hPa
Press
MSL
hPa
Rain since
9am
mm
Dir  Spd
km/h
Gust
km/h
Spd
kts
Gust
kts
28/11:54pm 10.1 7.7 10.1 100 0.0 N 13 13 7 7 1015.6 1012.6 0.0
28/11:30pm 10.5 8.2 10.5 100 0.0 NNE 13 15 7 8 1015.6 1012.6 0.0
28/11:00pm 10.7 8.5 10.7 100 0.0 NNE 13 13 7 7 1015.6 1012.6 0.0
28/10:30pm 10.7 8.5 10.7 100 0.0 NNE 13 15 7 8 1015.6 1012.6 0.0
28/10:00pm 11.2 9.1 11.0 99 0.1 NNE 13 15 7 8 1015.5 1012.5 0.0
28/09:30pm 12.0 9.3 11.8 99 0.1 NNE 17 19 9 10 1015.3 1012.4 0.0
28/09:00pm 12.2 10.0 12.0 99 0.1 NNE 15 17 8 9 1015.1 1012.2 0.0
28/08:30pm 12.8 11.4 12.2 96 0.3 NNE 11 13 6 7 1015.0 1012.1 0.0
28/08:00pm 14.5 14.2 12.7 89 1.0 N 6 11 3 6 1014.7 1011.7 0.0
28/07:30pm 16.6 15.6 12.2 75 2.5 NE 9 19 5 10 1014.4 1011.4 0.0
28/07:00pm 18.6 15.9 5.8 43 6.6 N 9 15 5 8 1014.0 1011.1 0.0
28/06:30pm 22.0 17.0 1.6 26 9.9 NW 17 24 9 13 1013.8 1010.9 0.0
28/06:00pm 23.0 18.4 1.4 24 10.6 NW 15 20 8 11 1013.5 1010.5 0.0
28/05:30pm 23.8 18.8 1.4 23 11.0 NNW 17 24 9 13 1013.5 1010.5 0.0
28/05:00pm 25.8 25.2 8.8 34 9.6 WSW 2 7 1 4 1013.3 1010.3 0.0
28/04:30pm 25.0 22.1 8.1 34 9.4 SW 13 19 7 10 1013.2 1010.2 0.0
28/04:00pm 25.1 21.4 -0.1 19 12.2 NNW 9 13 5 7 1013.2 1010.2 0.0
28/03:30pm 25.2 22.2 7.8 33 9.7 WNW 13 20 7 11 1013.4 1010.4 0.0
28/03:00pm 24.9 20.1 0.4 20 11.9 NNW 15 24 8 13 1013.6 1010.6 0.0
28/02:30pm 24.7 21.0 2.2 23 11.3 SE 11 26 6 14 1013.8 1010.9 0.0
28/02:00pm 22.8 21.1 14.6 60 5.0 NE 17 22 9 12 1014.2 1011.3 0.0
28/01:30pm 21.5 19.3 14.4 64 4.3 NE 19 24 10 13 1014.5 1011.5 0.0
28/01:00pm 20.8 18.7 14.7 68 3.7 NE 19 24 10 13 1014.9 1012.0 0.0
28/12:30pm 19.6 17.8 15.5 77 2.5 NE 19 26 10 14 1015.3 1012.4 0.0
28/12:00pm 18.3 16.2 14.8 80 2.1 NE 19 24 10 13 1015.8 1012.9 0.0
28/11:30am 17.1 14.4 13.0 77 2.4 NE 19 24 10 13 1016.0 1013.1 0.0
28/11:00am 16.7 14.0 13.0 79 2.2 NE 19 24 10 13 1016.1 1013.2 0.0
28/10:53am 16.6 14.0 13.9 84 1.6 NE 20 26 11 14 1016.0 1013.1 0.0
28/10:30am 15.8 13.5 13.1 84 1.6 NE 17 20 9 11 1016.2 1013.3 0.0
28/10:00am 14.7 13.3 13.4 92 0.8 NE 13 17 7 9 1016.3 1013.4 0.0
28/09:30am 13.2 12.4 13.0 99 0.1 NNE 9 13 5 7 1016.2 1013.3 0.0

Other Formats:

Comma delimited format used in spreadsheet applications
http://www.bom.gov.au/fwo/IDN60801/IDN60801.94921.axf

JavaScript Object Notation format (JSON) in row-major order
http://www.bom.gov.au/fwo/IDN60801/IDN60801.94921.json